sensor_id;sensor_type;location;lat;lon;timestamp;P1;durP1;ratioP1;P2;durP2;ratioP2
10387;SDS011;5240;51.128;4.566;2023-02-01T00:00:19;16.85;;;8.50;;
10387;SDS011;5240;51.128;4.566;2023-02-01T00:02:47;30.42;;;9.00;;
10387;SDS011;5240;51.128;4.566;2023-02-01T00:05:14;23.08;;;8.90;;
10387;SDS011;5240;51.128;4.566;2023-02-01T00:07:41;20.95;;;8.23;;
10387;SDS011;5240;51.128;4.566;2023-02-01T00:10:11;28.67;;;8.07;;
10387;SDS011;5240;51.128;4.566;2023-02-01T00:12:38;23.00;;;8.07;;
10387;SDS011;5240;51.128;4.566;2023-02-01T00:15:05;22.60;;;7.95;;
10387;SDS011;5240;51.128;4.566;2023-02-01T00:17:33;19.40;;;7.53;;
10387;SDS011;5240;51.128;4.566;2023-02-01T00:20:00;19.05;;;7.45;;
10387;SDS011;5240;51.128;4.566;2023-02-01T00:22:28;31.83;;;9.57;;
10387;SDS011;5240;51.128;4.566;2023-02-01T00:24:55;21.80;;;8.48;;
10387;SDS011;5240;51.128;4.566;2023-02-01T00:27:23;16.23;;;7.15;;
10387;SDS011;5240;51.128;4.566;2023-02-01T00:29:50;25.58;;;7.45;;
10387;SDS011;5240;51.128;4.566;2023-02-01T00:32:17;28.65;;;7.57;;
10387;SDS011;5240;51.128;4.566;2023-02-01T00:34:44;21.00;;;7.97;;
10387;SDS011;5240;51.128;4.566;2023-02-01T00:37:11;22.08;;;7.35;;
10387;SDS011;5240;51.128;4.566;2023-02-01T00:39:38;28.10;;;8.02;;
10387;SDS011;5240;51.128;4.566;2023-02-01T00:42:05;21.08;;;8.00;;
10387;SDS011;5240;51.128;4.566;2023-02-01T00:44:33;19.88;;;7.72;;
10387;SDS011;5240;51.128;4.566;2023-02-01T00:47:01;21.83;;;7.07;;
10387;SDS011;5240;51.128;4.566;2023-02-01T00:49:28;21.70;;;7.22;;
10387;SDS011;5240;51.128;4.566;2023-02-01T00:51:55;21.52;;;7.40;;
10387;SDS011;5240;51.128;4.566;2023-02-01T00:54:22;23.90;;;7.40;;
10387;SDS011;5240;51.128;4.566;2023-02-01T00:56:49;18.90;;;8.10;;
10387;SDS011;5240;51.128;4.566;2023-02-01T00:59:16;17.83;;;7.63;;
10387;SDS011;5240;51.128;4.566;2023-02-01T01:01:44;19.05;;;7.38;;
10387;SDS011;5240;51.128;4.566;2023-02-01T01:04:11;17.10;;;6.40;;
10387;SDS011;5240;51.128;4.566;2023-02-01T01:06:38;21.98;;;7.20;;
10387;SDS011;5240;51.128;4.566;2023-02-01T01:09:06;20.92;;;6.53;;
10387;SDS011;5240;51.128;4.566;2023-02-01T01:11:34;25.38;;;7.05;;
10387;SDS011;5240;51.128;4.566;2023-02-01T01:14:03;21.63;;;7.00;;
10387;SDS011;5240;51.128;4.566;2023-02-01T01:16:32;21.80;;;7.30;;
10387;SDS011;5240;51.128;4.566;2023-02-01T01:19:01;24.00;;;6.97;;
10387;SDS011;5240;51.128;4.566;2023-02-01T01:21:29;27.67;;;6.40;;
10387;SDS011;5240;51.128;4.566;2023-02-01T01:23:56;18.67;;;6.50;;
10387;SDS011;5240;51.128;4.566;2023-02-01T01:26:24;22.50;;;6.85;;
10387;SDS011;5240;51.128;4.566;2023-02-01T01:28:54;22.52;;;7.07;;
10387;SDS011;5240;51.128;4.566;2023-02-01T01:31:22;17.88;;;6.85;;
10387;SDS011;5240;51.128;4.566;2023-02-01T01:33:50;18.73;;;6.30;;
10387;SDS011;5240;51.128;4.566;2023-02-01T01:36:20;21.73;;;5.72;;
10387;SDS011;5240;51.128;4.566;2023-02-01T01:38:48;24.17;;;6.57;;
10387;SDS011;5240;51.128;4.566;2023-02-01T01:41:16;21.15;;;6.88;;
10387;SDS011;5240;51.128;4.566;2023-02-01T01:43:48;15.18;;;5.60;;
10387;SDS011;5240;51.128;4.566;2023-02-01T01:46:20;20.42;;;6.43;;
10387;SDS011;5240;51.128;4.566;2023-02-01T01:48:50;24.70;;;5.88;;
10387;SDS011;5240;51.128;4.566;2023-02-01T01:51:24;26.30;;;7.30;;
10387;SDS011;5240;51.128;4.566;2023-02-01T01:53:56;20.40;;;6.05;;
10387;SDS011;5240;51.128;4.566;2023-02-01T01:56:26;20.88;;;5.90;;
10387;SDS011;5240;51.128;4.566;2023-02-01T01:58:55;21.63;;;6.85;;
10387;SDS011;5240;51.128;4.566;2023-02-01T02:01:22;23.40;;;6.28;;
10387;SDS011;5240;51.128;4.566;2023-02-01T02:03:50;18.13;;;5.68;;
10387;SDS011;5240;51.128;4.566;2023-02-01T02:06:20;22.05;;;6.25;;
10387;SDS011;5240;51.128;4.566;2023-02-01T02:08:56;25.67;;;5.85;;
10387;SDS011;5240;51.128;4.566;2023-02-01T02:11:23;21.33;;;5.70;;
10387;SDS011;5240;51.128;4.566;2023-02-01T02:13:50;16.95;;;5.68;;
10387;SDS011;5240;51.128;4.566;2023-02-01T02:16:35;18.35;;;5.22;;
10387;SDS011;5240;51.128;4.566;2023-02-01T02:22:42;28.95;;;6.05;;
10387;SDS011;5240;51.128;4.566;2023-02-01T02:25:36;17.55;;;5.05;;
10387;SDS011;5240;51.128;4.566;2023-02-01T02:28:35;23.52;;;5.15;;
10387;SDS011;5240;51.128;4.566;2023-02-01T02:31:30;22.40;;;5.50;;
10387;SDS011;5240;51.128;4.566;2023-02-01T02:34:10;20.70;;;4.82;;
10387;SDS011;5240;51.128;4.566;2023-02-01T02:36:46;23.77;;;5.10;;
10387;SDS011;5240;51.128;4.566;2023-02-01T02:39:21;22.33;;;4.57;;
10387;SDS011;5240;51.128;4.566;2023-02-01T02:41:58;20.05;;;5.57;;
10387;SDS011;5240;51.128;4.566;2023-02-01T02:44:53;18.13;;;5.10;;
10387;SDS011;5240;51.128;4.566;2023-02-01T02:47:42;17.73;;;5.47;;
10387;SDS011;5240;51.128;4.566;2023-02-01T02:50:20;18.50;;;4.70;;
10387;SDS011;5240;51.128;4.566;2023-02-01T02:53:11;15.50;;;4.75;;
10387;SDS011;5240;51.128;4.566;2023-02-01T02:55:58;19.60;;;5.43;;
10387;SDS011;5240;51.128;4.566;2023-02-01T02:58:45;16.65;;;5.30;;
10387;SDS011;5240;51.128;4.566;2023-02-01T03:01:30;17.27;;;4.63;;
10387;SDS011;5240;51.128;4.566;2023-02-01T03:04:15;24.25;;;5.38;;
10387;SDS011;5240;51.128;4.566;2023-02-01T03:06:45;17.40;;;4.13;;
10387;SDS011;5240;51.128;4.566;2023-02-01T03:09:13;17.90;;;4.93;;
10387;SDS011;5240;51.128;4.566;2023-02-01T03:11:47;12.60;;;3.70;;
10387;SDS011;5240;51.128;4.566;2023-02-01T03:14:35;17.40;;;4.97;;
10387;SDS011;5240;51.128;4.566;2023-02-01T03:17:04;23.80;;;4.97;;
10387;SDS011;5240;51.128;4.566;2023-02-01T03:19:37;15.63;;;4.38;;
10387;SDS011;5240;51.128;4.566;2023-02-01T03:22:10;16.05;;;4.45;;
10387;SDS011;5240;51.128;4.566;2023-02-01T03:24:41;26.65;;;5.15;;
10387;SDS011;5240;51.128;4.566;2023-02-01T03:27:11;20.58;;;4.00;;
10387;SDS011;5240;51.128;4.566;2023-02-01T03:29:45;21.23;;;4.80;;
10387;SDS011;5240;51.128;4.566;2023-02-01T03:32:16;23.05;;;4.47;;
10387;SDS011;5240;51.128;4.566;2023-02-01T03:34:43;18.25;;;3.95;;
10387;SDS011;5240;51.128;4.566;2023-02-01T03:37:12;20.08;;;4.30;;
10387;SDS011;5240;51.128;4.566;2023-02-01T03:39:44;15.43;;;4.32;;
10387;SDS011;5240;51.128;4.566;2023-02-01T03:42:16;18.17;;;4.75;;
10387;SDS011;5240;51.128;4.566;2023-02-01T03:44:46;16.77;;;4.05;;
10387;SDS011;5240;51.128;4.566;2023-02-01T03:47:18;21.23;;;4.53;;
10387;SDS011;5240;51.128;4.566;2023-02-01T03:49:49;17.30;;;4.97;;
10387;SDS011;5240;51.128;4.566;2023-02-01T03:52:22;25.50;;;4.43;;
10387;SDS011;5240;51.128;4.566;2023-02-01T03:54:52;18.73;;;4.30;;
10387;SDS011;5240;51.128;4.566;2023-02-01T03:57:21;18.55;;;4.38;;
10387;SDS011;5240;51.128;4.566;2023-02-01T03:59:52;18.83;;;4.47;;
10387;SDS011;5240;51.128;4.566;2023-02-01T04:02:19;21.98;;;4.45;;
10387;SDS011;5240;51.128;4.566;2023-02-01T04:04:46;13.70;;;3.95;;
10387;SDS011;5240;51.128;4.566;2023-02-01T04:07:13;20.70;;;4.88;;
10387;SDS011;5240;51.128;4.566;2023-02-01T04:09:43;20.48;;;4.47;;
10387;SDS011;5240;51.128;4.566;2023-02-01T04:12:10;21.73;;;4.82;;
10387;SDS011;5240;51.128;4.566;2023-02-01T04:14:37;20.25;;;4.78;;
10387;SDS011;5240;51.128;4.566;2023-02-01T04:17:04;19.13;;;4.20;;
10387;SDS011;5240;51.128;4.566;2023-02-01T04:19:31;21.67;;;4.53;;
10387;SDS011;5240;51.128;4.566;2023-02-01T04:21:58;21.55;;;4.65;;
10387;SDS011;5240;51.128;4.566;2023-02-01T04:24:25;22.02;;;4.90;;
10387;SDS011;5240;51.128;4.566;2023-02-01T04:26:53;28.48;;;5.72;;
10387;SDS011;5240;51.128;4.566;2023-02-01T04:29:20;22.65;;;5.53;;
10387;SDS011;5240;51.128;4.566;2023-02-01T04:31:47;22.88;;;4.70;;
10387;SDS011;5240;51.128;4.566;2023-02-01T04:34:15;26.55;;;5.47;;
10387;SDS011;5240;51.128;4.566;2023-02-01T04:36:42;19.40;;;4.93;;
10387;SDS011;5240;51.128;4.566;2023-02-01T04:39:09;19.08;;;5.00;;
10387;SDS011;5240;51.128;4.566;2023-02-01T04:41:36;19.10;;;4.03;;
10387;SDS011;5240;51.128;4.566;2023-02-01T04:44:05;19.90;;;4.72;;
10387;SDS011;5240;51.128;4.566;2023-02-01T04:46:33;17.75;;;5.13;;
10387;SDS011;5240;51.128;4.566;2023-02-01T04:49:00;23.77;;;5.50;;
10387;SDS011;5240;51.128;4.566;2023-02-01T04:51:27;20.30;;;4.53;;
10387;SDS011;5240;51.128;4.566;2023-02-01T04:53:55;24.73;;;4.57;;
10387;SDS011;5240;51.128;4.566;2023-02-01T04:56:22;22.30;;;4.95;;
10387;SDS011;5240;51.128;4.566;2023-02-01T04:58:49;17.90;;;4.57;;
10387;SDS011;5240;51.128;4.566;2023-02-01T05:01:17;21.65;;;4.63;;
10387;SDS011;5240;51.128;4.566;2023-02-01T05:03:44;23.45;;;4.70;;
10387;SDS011;5240;51.128;4.566;2023-02-01T05:06:11;22.55;;;5.03;;
10387;SDS011;5240;51.128;4.566;2023-02-01T05:08:38;17.02;;;4.60;;
10387;SDS011;5240;51.128;4.566;2023-02-01T05:11:05;16.17;;;3.83;;
10387;SDS011;5240;51.128;4.566;2023-02-01T05:13:53;20.42;;;4.68;;
10387;SDS011;5240;51.128;4.566;2023-02-01T05:16:20;28.85;;;5.25;;
10387;SDS011;5240;51.128;4.566;2023-02-01T05:18:47;22.92;;;4.32;;
10387;SDS011;5240;51.128;4.566;2023-02-01T05:21:14;20.55;;;4.68;;
10387;SDS011;5240;51.128;4.566;2023-02-01T05:23:41;28.50;;;4.47;;
10387;SDS011;5240;51.128;4.566;2023-02-01T05:26:37;15.98;;;4.65;;
10387;SDS011;5240;51.128;4.566;2023-02-01T05:29:05;20.30;;;4.57;;
10387;SDS011;5240;51.128;4.566;2023-02-01T05:31:35;22.58;;;5.97;;
10387;SDS011;5240;51.128;4.566;2023-02-01T05:34:02;19.02;;;4.65;;
10387;SDS011;5240;51.128;4.566;2023-02-01T05:36:29;16.25;;;4.28;;
10387;SDS011;5240;51.128;4.566;2023-02-01T05:38:56;19.58;;;4.95;;
10387;SDS011;5240;51.128;4.566;2023-02-01T05:41:24;23.65;;;5.00;;
10387;SDS011;5240;51.128;4.566;2023-02-01T05:43:51;18.85;;;4.85;;
10387;SDS011;5240;51.128;4.566;2023-02-01T05:46:18;25.58;;;4.57;;
10387;SDS011;5240;51.128;4.566;2023-02-01T05:48:46;22.08;;;5.50;;
10387;SDS011;5240;51.128;4.566;2023-02-01T05:51:14;21.45;;;4.95;;
10387;SDS011;5240;51.128;4.566;2023-02-01T05:53:41;22.20;;;4.78;;
10387;SDS011;5240;51.128;4.566;2023-02-01T05:56:08;17.73;;;4.32;;
10387;SDS011;5240;51.128;4.566;2023-02-01T05:58:35;21.92;;;4.80;;
10387;SDS011;5240;51.128;4.566;2023-02-01T06:01:02;20.08;;;5.10;;
10387;SDS011;5240;51.128;4.566;2023-02-01T06:03:30;22.73;;;4.85;;
10387;SDS011;5240;51.128;4.566;2023-02-01T06:05:58;17.98;;;5.30;;
10387;SDS011;5240;51.128;4.566;2023-02-01T06:08:26;19.60;;;5.22;;
10387;SDS011;5240;51.128;4.566;2023-02-01T06:10:57;20.75;;;4.35;;
10387;SDS011;5240;51.128;4.566;2023-02-01T06:13:24;16.40;;;4.45;;
10387;SDS011;5240;51.128;4.566;2023-02-01T06:15:51;25.88;;;5.78;;
10387;SDS011;5240;51.128;4.566;2023-02-01T06:18:18;16.48;;;4.28;;
10387;SDS011;5240;51.128;4.566;2023-02-01T06:20:51;21.70;;;4.75;;
10387;SDS011;5240;51.128;4.566;2023-02-01T06:23:20;23.02;;;4.50;;
10387;SDS011;5240;51.128;4.566;2023-02-01T06:25:49;24.30;;;4.93;;
10387;SDS011;5240;51.128;4.566;2023-02-01T06:28:17;18.45;;;5.10;;
10387;SDS011;5240;51.128;4.566;2023-02-01T06:30:44;21.58;;;4.88;;
10387;SDS011;5240;51.128;4.566;2023-02-01T06:33:12;18.30;;;4.85;;
10387;SDS011;5240;51.128;4.566;2023-02-01T06:35:40;23.17;;;4.78;;
10387;SDS011;5240;51.128;4.566;2023-02-01T06:38:09;27.08;;;5.47;;
10387;SDS011;5240;51.128;4.566;2023-02-01T06:40:38;30.05;;;5.40;;
10387;SDS011;5240;51.128;4.566;2023-02-01T06:43:06;27.95;;;6.10;;
10387;SDS011;5240;51.128;4.566;2023-02-01T06:45:33;22.70;;;5.85;;
10387;SDS011;5240;51.128;4.566;2023-02-01T06:48:00;15.00;;;4.43;;
10387;SDS011;5240;51.128;4.566;2023-02-01T06:50:27;21.30;;;5.57;;
10387;SDS011;5240;51.128;4.566;2023-02-01T06:52:54;25.23;;;5.90;;
10387;SDS011;5240;51.128;4.566;2023-02-01T06:55:22;20.67;;;6.28;;
10387;SDS011;5240;51.128;4.566;2023-02-01T06:57:53;22.17;;;5.65;;
10387;SDS011;5240;51.128;4.566;2023-02-01T07:00:21;23.80;;;5.50;;
10387;SDS011;5240;51.128;4.566;2023-02-01T07:02:49;19.60;;;4.68;;
10387;SDS011;5240;51.128;4.566;2023-02-01T07:05:16;23.40;;;4.82;;
10387;SDS011;5240;51.128;4.566;2023-02-01T07:07:43;26.08;;;4.65;;
10387;SDS011;5240;51.128;4.566;2023-02-01T07:10:11;21.38;;;4.95;;
10387;SDS011;5240;51.128;4.566;2023-02-01T07:12:38;22.30;;;5.20;;
10387;SDS011;5240;51.128;4.566;2023-02-01T07:15:07;26.50;;;4.72;;
10387;SDS011;5240;51.128;4.566;2023-02-01T07:17:35;26.20;;;5.22;;
10387;SDS011;5240;51.128;4.566;2023-02-01T07:20:02;22.70;;;4.63;;
10387;SDS011;5240;51.128;4.566;2023-02-01T07:22:29;20.63;;;5.13;;
10387;SDS011;5240;51.128;4.566;2023-02-01T07:24:57;20.52;;;5.20;;
10387;SDS011;5240;51.128;4.566;2023-02-01T07:27:24;20.92;;;4.40;;
10387;SDS011;5240;51.128;4.566;2023-02-01T07:29:54;19.08;;;4.90;;
10387;SDS011;5240;51.128;4.566;2023-02-01T07:32:29;17.02;;;5.20;;
10387;SDS011;5240;51.128;4.566;2023-02-01T07:34:57;16.48;;;4.43;;
10387;SDS011;5240;51.128;4.566;2023-02-01T07:37:24;25.42;;;5.43;;
10387;SDS011;5240;51.128;4.566;2023-02-01T07:39:51;23.00;;;5.15;;
10387;SDS011;5240;51.128;4.566;2023-02-01T07:42:19;26.50;;;5.40;;
10387;SDS011;5240;51.128;4.566;2023-02-01T07:44:46;21.67;;;4.80;;
10387;SDS011;5240;51.128;4.566;2023-02-01T07:47:16;24.02;;;5.47;;
10387;SDS011;5240;51.128;4.566;2023-02-01T07:49:45;11.73;;;4.60;;
10387;SDS011;5240;51.128;4.566;2023-02-01T07:52:12;23.23;;;4.65;;
10387;SDS011;5240;51.128;4.566;2023-02-01T07:54:41;18.00;;;4.75;;
10387;SDS011;5240;51.128;4.566;2023-02-01T07:57:09;21.45;;;5.10;;
10387;SDS011;5240;51.128;4.566;2023-02-01T07:59:38;17.63;;;5.07;;
10387;SDS011;5240;51.128;4.566;2023-02-01T08:02:26;29.48;;;6.10;;
10387;SDS011;5240;51.128;4.566;2023-02-01T08:04:54;19.83;;;5.15;;
10387;SDS011;5240;51.128;4.566;2023-02-01T08:07:21;21.55;;;4.60;;
10387;SDS011;5240;51.128;4.566;2023-02-01T08:09:48;26.65;;;4.60;;
10387;SDS011;5240;51.128;4.566;2023-02-01T08:12:15;24.10;;;5.53;;
10387;SDS011;5240;51.128;4.566;2023-02-01T08:14:43;21.05;;;5.10;;
10387;SDS011;5240;51.128;4.566;2023-02-01T08:17:10;20.40;;;6.25;;
10387;SDS011;5240;51.128;4.566;2023-02-01T08:19:37;25.45;;;6.00;;
10387;SDS011;5240;51.128;4.566;2023-02-01T08:22:06;19.55;;;6.05;;
10387;SDS011;5240;51.128;4.566;2023-02-01T08:29:44;20.17;;;5.13;;
10387;SDS011;5240;51.128;4.566;2023-02-01T08:32:12;21.98;;;5.65;;
10387;SDS011;5240;51.128;4.566;2023-02-01T08:34:39;19.63;;;4.82;;
10387;SDS011;5240;51.128;4.566;2023-02-01T08:37:08;17.70;;;5.10;;
10387;SDS011;5240;51.128;4.566;2023-02-01T08:39:35;19.38;;;5.30;;
10387;SDS011;5240;51.128;4.566;2023-02-01T08:42:03;27.60;;;5.50;;
10387;SDS011;5240;51.128;4.566;2023-02-01T08:44:47;22.90;;;6.00;;
10387;SDS011;5240;51.128;4.566;2023-02-01T08:47:16;26.17;;;5.60;;
10387;SDS011;5240;51.128;4.566;2023-02-01T08:49:44;21.02;;;5.68;;
10387;SDS011;5240;51.128;4.566;2023-02-01T08:52:14;19.80;;;5.20;;
10387;SDS011;5240;51.128;4.566;2023-02-01T08:54:41;17.60;;;4.60;;
10387;SDS011;5240;51.128;4.566;2023-02-01T08:57:08;36.53;;;11.50;;
10387;SDS011;5240;51.128;4.566;2023-02-01T08:59:36;23.98;;;5.47;;
10387;SDS011;5240;51.128;4.566;2023-02-01T09:02:03;23.10;;;5.93;;
10387;SDS011;5240;51.128;4.566;2023-02-01T09:04:30;19.95;;;5.50;;
10387;SDS011;5240;51.128;4.566;2023-02-01T09:06:57;21.98;;;5.75;;
10387;SDS011;5240;51.128;4.566;2023-02-01T09:09:27;24.35;;;6.38;;
10387;SDS011;5240;51.128;4.566;2023-02-01T09:11:54;17.23;;;5.47;;
10387;SDS011;5240;51.128;4.566;2023-02-01T09:14:21;26.70;;;5.30;;
10387;SDS011;5240;51.128;4.566;2023-02-01T09:16:48;27.30;;;5.50;;
10387;SDS011;5240;51.128;4.566;2023-02-01T09:19:16;21.60;;;5.20;;
10387;SDS011;5240;51.128;4.566;2023-02-01T09:21:43;17.73;;;4.47;;
10387;SDS011;5240;51.128;4.566;2023-02-01T09:26:41;23.63;;;5.40;;
10387;SDS011;5240;51.128;4.566;2023-02-01T09:29:24;19.63;;;5.22;;
10387;SDS011;5240;51.128;4.566;2023-02-01T09:31:51;19.80;;;5.15;;
10387;SDS011;5240;51.128;4.566;2023-02-01T09:34:18;21.52;;;5.18;;
10387;SDS011;5240;51.128;4.566;2023-02-01T09:36:45;24.35;;;4.97;;
10387;SDS011;5240;51.128;4.566;2023-02-01T09:39:12;19.90;;;4.80;;
10387;SDS011;5240;51.128;4.566;2023-02-01T09:41:45;25.52;;;5.78;;
10387;SDS011;5240;51.128;4.566;2023-02-01T09:44:26;17.10;;;4.90;;
10387;SDS011;5240;51.128;4.566;2023-02-01T09:47:14;23.75;;;4.90;;
10387;SDS011;5240;51.128;4.566;2023-02-01T09:49:47;22.60;;;5.70;;
10387;SDS011;5240;51.128;4.566;2023-02-01T09:52:19;21.70;;;5.75;;
10387;SDS011;5240;51.128;4.566;2023-02-01T09:54:54;21.88;;;5.07;;
10387;SDS011;5240;51.128;4.566;2023-02-01T09:57:28;20.13;;;5.07;;
10387;SDS011;5240;51.128;4.566;2023-02-01T10:00:07;23.92;;;5.53;;
10387;SDS011;5240;51.128;4.566;2023-02-01T10:02:43;15.70;;;4.47;;
10387;SDS011;5240;51.128;4.566;2023-02-01T10:05:12;15.02;;;4.80;;
10387;SDS011;5240;51.128;4.566;2023-02-01T10:07:44;15.70;;;4.50;;
10387;SDS011;5240;51.128;4.566;2023-02-01T10:10:26;23.35;;;5.30;;
10387;SDS011;5240;51.128;4.566;2023-02-01T10:13:11;18.98;;;4.22;;
10387;SDS011;5240;51.128;4.566;2023-02-01T10:16:22;19.45;;;4.43;;
10387;SDS011;5240;51.128;4.566;2023-02-01T10:24:41;17.13;;;4.32;;
10387;SDS011;5240;51.128;4.566;2023-02-01T10:27:13;16.90;;;4.20;;
10387;SDS011;5240;51.128;4.566;2023-02-01T10:29:46;17.10;;;4.50;;
10387;SDS011;5240;51.128;4.566;2023-02-01T10:32:19;14.98;;;4.20;;
10387;SDS011;5240;51.128;4.566;2023-02-01T10:34:49;18.75;;;4.93;;
10387;SDS011;5240;51.128;4.566;2023-02-01T10:37:24;16.08;;;3.95;;
10387;SDS011;5240;51.128;4.566;2023-02-01T10:39:55;17.52;;;4.68;;
10387;SDS011;5240;51.128;4.566;2023-02-01T10:42:25;15.13;;;3.45;;
10387;SDS011;5240;51.128;4.566;2023-02-01T10:44:55;13.48;;;3.65;;
10387;SDS011;5240;51.128;4.566;2023-02-01T10:47:26;14.73;;;3.92;;
10387;SDS011;5240;51.128;4.566;2023-02-01T10:49:55;17.10;;;4.13;;
10387;SDS011;5240;51.128;4.566;2023-02-01T10:52:34;21.13;;;4.07;;
10387;SDS011;5240;51.128;4.566;2023-02-01T10:55:30;12.15;;;3.67;;
10387;SDS011;5240;51.128;4.566;2023-02-01T10:58:03;16.83;;;3.55;;
10387;SDS011;5240;51.128;4.566;2023-02-01T11:00:43;10.63;;;3.22;;
10387;SDS011;5240;51.128;4.566;2023-02-01T11:06:09;16.92;;;3.85;;
10387;SDS011;5240;51.128;4.566;2023-02-01T11:08:56;18.25;;;3.72;;
10387;SDS011;5240;51.128;4.566;2023-02-01T11:11:24;14.73;;;3.70;;
10387;SDS011;5240;51.128;4.566;2023-02-01T11:13:56;13.18;;;3.92;;
10387;SDS011;5240;51.128;4.566;2023-02-01T11:16:33;19.27;;;3.95;;
10387;SDS011;5240;51.128;4.566;2023-02-01T11:19:05;17.13;;;3.72;;
10387;SDS011;5240;51.128;4.566;2023-02-01T11:21:33;12.40;;;3.65;;
10387;SDS011;5240;51.128;4.566;2023-02-01T11:24:01;11.85;;;3.13;;
10387;SDS011;5240;51.128;4.566;2023-02-01T11:26:30;11.60;;;2.95;;
10387;SDS011;5240;51.128;4.566;2023-02-01T11:29:00;15.43;;;3.67;;
10387;SDS011;5240;51.128;4.566;2023-02-01T11:31:31;13.48;;;3.40;;
10387;SDS011;5240;51.128;4.566;2023-02-01T11:34:05;15.05;;;3.40;;
10387;SDS011;5240;51.128;4.566;2023-02-01T11:36:35;11.75;;;2.90;;
10387;SDS011;5240;51.128;4.566;2023-02-01T11:39:19;16.80;;;3.67;;
10387;SDS011;5240;51.128;4.566;2023-02-01T11:41:58;13.63;;;3.47;;
10387;SDS011;5240;51.128;4.566;2023-02-01T11:44:31;16.23;;;3.80;;
10387;SDS011;5240;51.128;4.566;2023-02-01T11:49:50;11.63;;;3.85;;
10387;SDS011;5240;51.128;4.566;2023-02-01T11:52:24;8.70;;;3.20;;
10387;SDS011;5240;51.128;4.566;2023-02-01T11:55:22;12.98;;;3.50;;
10387;SDS011;5240;51.128;4.566;2023-02-01T11:58:12;13.65;;;3.40;;
10387;SDS011;5240;51.128;4.566;2023-02-01T12:01:07;18.05;;;3.40;;
10387;SDS011;5240;51.128;4.566;2023-02-01T12:06:50;14.88;;;3.83;;
10387;SDS011;5240;51.128;4.566;2023-02-01T12:09:32;14.45;;;3.55;;
10387;SDS011;5240;51.128;4.566;2023-02-01T12:12:12;9.88;;;2.90;;
10387;SDS011;5240;51.128;4.566;2023-02-01T12:17:50;11.55;;;3.13;;
10387;SDS011;5240;51.128;4.566;2023-02-01T12:20:35;12.23;;;3.28;;
10387;SDS011;5240;51.128;4.566;2023-02-01T12:23:30;23.50;;;3.88;;
10387;SDS011;5240;51.128;4.566;2023-02-01T12:26:20;10.45;;;3.50;;
10387;SDS011;5240;51.128;4.566;2023-02-01T12:32:09;12.45;;;2.83;;
10387;SDS011;5240;51.128;4.566;2023-02-01T12:34:51;12.20;;;3.13;;
10387;SDS011;5240;51.128;4.566;2023-02-01T12:37:40;8.27;;;2.42;;
10387;SDS011;5240;51.128;4.566;2023-02-01T12:40:26;10.00;;;2.83;;
10387;SDS011;5240;51.128;4.566;2023-02-01T12:43:04;12.55;;;3.08;;
10387;SDS011;5240;51.128;4.566;2023-02-01T12:45:38;10.27;;;2.67;;
10387;SDS011;5240;51.128;4.566;2023-02-01T12:48:18;16.95;;;2.83;;
10387;SDS011;5240;51.128;4.566;2023-02-01T12:50:52;9.15;;;2.67;;
10387;SDS011;5240;51.128;4.566;2023-02-01T12:53:23;8.57;;;2.67;;
10387;SDS011;5240;51.128;4.566;2023-02-01T12:55:55;8.75;;;2.50;;
10387;SDS011;5240;51.128;4.566;2023-02-01T12:58:27;11.40;;;2.72;;
10387;SDS011;5240;51.128;4.566;2023-02-01T13:01:02;9.65;;;2.42;;
10387;SDS011;5240;51.128;4.566;2023-02-01T13:03:35;12.02;;;2.90;;
10387;SDS011;5240;51.128;4.566;2023-02-01T13:06:07;12.23;;;2.70;;
10387;SDS011;5240;51.128;4.566;2023-02-01T13:08:40;13.90;;;3.20;;
10387;SDS011;5240;51.128;4.566;2023-02-01T13:11:15;13.13;;;3.15;;
10387;SDS011;5240;51.128;4.566;2023-02-01T13:13:49;9.32;;;3.03;;
10387;SDS011;5240;51.128;4.566;2023-02-01T13:16:25;13.05;;;2.97;;
10387;SDS011;5240;51.128;4.566;2023-02-01T13:19:08;13.45;;;3.17;;
10387;SDS011;5240;51.128;4.566;2023-02-01T13:21:42;9.60;;;2.50;;
10387;SDS011;5240;51.128;4.566;2023-02-01T13:24:17;14.57;;;2.88;;
10387;SDS011;5240;51.128;4.566;2023-02-01T13:26:55;11.45;;;2.80;;
10387;SDS011;5240;51.128;4.566;2023-02-01T13:29:23;10.13;;;2.92;;
10387;SDS011;5240;51.128;4.566;2023-02-01T13:31:55;13.05;;;2.90;;
10387;SDS011;5240;51.128;4.566;2023-02-01T13:34:49;12.73;;;3.42;;
10387;SDS011;5240;51.128;4.566;2023-02-01T13:37:33;11.60;;;2.83;;
10387;SDS011;5240;51.128;4.566;2023-02-01T13:40:23;10.75;;;2.65;;
10387;SDS011;5240;51.128;4.566;2023-02-01T13:43:05;13.60;;;2.75;;
10387;SDS011;5240;51.128;4.566;2023-02-01T13:45:43;10.18;;;2.53;;
10387;SDS011;5240;51.128;4.566;2023-02-01T13:48:23;19.52;;;4.18;;
10387;SDS011;5240;51.128;4.566;2023-02-01T13:50:55;16.98;;;5.55;;
10387;SDS011;5240;51.128;4.566;2023-02-01T13:53:26;14.38;;;3.13;;
10387;SDS011;5240;51.128;4.566;2023-02-01T13:55:57;13.13;;;3.38;;
10387;SDS011;5240;51.128;4.566;2023-02-01T13:58:31;14.15;;;3.05;;
10387;SDS011;5240;51.128;4.566;2023-02-01T14:04:01;9.93;;;2.92;;
10387;SDS011;5240;51.128;4.566;2023-02-01T14:06:38;10.77;;;2.78;;
10387;SDS011;5240;51.128;4.566;2023-02-01T14:09:13;13.18;;;3.20;;
10387;SDS011;5240;51.128;4.566;2023-02-01T14:11:55;14.88;;;2.67;;
10387;SDS011;5240;51.128;4.566;2023-02-01T14:23:17;12.88;;;3.35;;
10387;SDS011;5240;51.128;4.566;2023-02-01T14:26:08;13.45;;;3.28;;
10387;SDS011;5240;51.128;4.566;2023-02-01T14:31:41;10.93;;;2.88;;
10387;SDS011;5240;51.128;4.566;2023-02-01T14:34:16;12.15;;;2.67;;
10387;SDS011;5240;51.128;4.566;2023-02-01T14:36:48;13.15;;;3.28;;
10387;SDS011;5240;51.128;4.566;2023-02-01T14:39:24;10.88;;;2.92;;
10387;SDS011;5240;51.128;4.566;2023-02-01T14:41:56;17.30;;;3.28;;
10387;SDS011;5240;51.128;4.566;2023-02-01T14:44:30;13.68;;;3.13;;
10387;SDS011;5240;51.128;4.566;2023-02-01T14:47:06;11.13;;;2.65;;
10387;SDS011;5240;51.128;4.566;2023-02-01T14:52:50;16.38;;;3.08;;
10387;SDS011;5240;51.128;4.566;2023-02-01T14:55:29;14.60;;;3.88;;
10387;SDS011;5240;51.128;4.566;2023-02-01T14:58:02;16.00;;;3.25;;
10387;SDS011;5240;51.128;4.566;2023-02-01T15:00:32;16.55;;;3.67;;
10387;SDS011;5240;51.128;4.566;2023-02-01T15:03:19;10.30;;;3.00;;
10387;SDS011;5240;51.128;4.566;2023-02-01T15:05:55;15.45;;;3.55;;
10387;SDS011;5240;51.128;4.566;2023-02-01T15:08:24;16.65;;;4.00;;
10387;SDS011;5240;51.128;4.566;2023-02-01T15:10:54;14.15;;;3.63;;
10387;SDS011;5240;51.128;4.566;2023-02-01T15:13:24;15.80;;;3.53;;
10387;SDS011;5240;51.128;4.566;2023-02-01T15:16:02;15.07;;;3.67;;
10387;SDS011;5240;51.128;4.566;2023-02-01T15:18:33;13.25;;;3.20;;
10387;SDS011;5240;51.128;4.566;2023-02-01T15:21:00;17.45;;;4.00;;
10387;SDS011;5240;51.128;4.566;2023-02-01T15:23:29;18.20;;;3.70;;
10387;SDS011;5240;51.128;4.566;2023-02-01T15:25:56;19.63;;;4.32;;
10387;SDS011;5240;51.128;4.566;2023-02-01T15:28:24;14.43;;;3.58;;
10387;SDS011;5240;51.128;4.566;2023-02-01T15:30:52;14.20;;;3.53;;
10387;SDS011;5240;51.128;4.566;2023-02-01T15:33:21;11.73;;;3.80;;
10387;SDS011;5240;51.128;4.566;2023-02-01T15:35:50;18.20;;;4.15;;
10387;SDS011;5240;51.128;4.566;2023-02-01T15:38:19;16.02;;;3.95;;
10387;SDS011;5240;51.128;4.566;2023-02-01T15:41:04;20.35;;;4.28;;
10387;SDS011;5240;51.128;4.566;2023-02-01T15:43:35;14.43;;;4.18;;
10387;SDS011;5240;51.128;4.566;2023-02-01T15:46:07;14.68;;;4.28;;
10387;SDS011;5240;51.128;4.566;2023-02-01T15:48:37;13.65;;;4.18;;
10387;SDS011;5240;51.128;4.566;2023-02-01T15:51:12;17.30;;;3.88;;
10387;SDS011;5240;51.128;4.566;2023-02-01T15:53:46;23.25;;;4.60;;
10387;SDS011;5240;51.128;4.566;2023-02-01T15:56:21;12.70;;;3.53;;
10387;SDS011;5240;51.128;4.566;2023-02-01T15:58:51;16.33;;;4.00;;
10387;SDS011;5240;51.128;4.566;2023-02-01T16:01:21;15.90;;;4.72;;
10387;SDS011;5240;51.128;4.566;2023-02-01T16:03:48;17.10;;;4.13;;
10387;SDS011;5240;51.128;4.566;2023-02-01T16:06:29;20.85;;;5.28;;